Time;durP1;ratioP1;P1;durP2;ratioP2;P2;SDS_P1;SDS_P2;PMS_P1;PMS_P2;Temp;Humidity;BMP_temperature;BMP_pressure;BME280_temperature;BME280_humidity;BME280_pressure;Samples;Min_cycle;Max_cycle;Signal;HPM_P1;HPM_P2
2023/10/24 00:01:54;;;;;;;45.50;36.60;;;;;;;6.83;100.00;98680.86;109238;1253;59155;-69
2023/10/24 00:04:21;;;;;;;41.90;35.20;;;;;;;6.84;100.00;98678.17;109544;1254;58993;-70
2023/10/24 00:06:47;;;;;;;39.80;34.70;;;;;;;6.83;100.00;98676.46;109516;1253;59266;-70
2023/10/24 00:09:14;;;;;;;41.30;36.60;;;;;;;6.81;100.00;98672.98;109294;1253;59346;-70
2023/10/24 00:11:40;;;;;;;44.30;38.40;;;;;;;6.81;100.00;98668.25;109484;1252;59486;-69
2023/10/24 00:14:07;;;;;;;46.10;38.60;;;;;;;6.80;100.00;98669.50;109490;1253;58993;-69
2023/10/24 00:16:33;;;;;;;47.50;41.70;;;;;;;6.83;100.00;98671.52;109485;1255;59071;-69
2023/10/24 00:19:00;;;;;;;55.50;46.60;;;;;;;6.86;100.00;98670.95;109541;1254;58941;-69
2023/10/24 00:21:26;;;;;;;54.10;46.30;;;;;;;6.90;100.00;98672.17;109497;1251;58952;-69
2023/10/24 00:23:53;;;;;;;52.80;44.20;;;;;;;6.92;100.00;98668.16;109505;1252;59011;-70
2023/10/24 00:26:19;;;;;;;56.40;44.10;;;;;;;6.94;100.00;98667.15;109347;1254;58948;-70
2023/10/24 00:28:45;;;;;;;51.80;43.60;;;;;;;6.98;100.00;98665.54;109526;1253;58955;-70
2023/10/24 00:31:12;;;;;;;51.90;44.20;;;;;;;7.00;100.00;98666.46;109530;1254;59081;-69
2023/10/24 00:33:38;;;;;;;51.90;43.50;;;;;;;7.00;100.00;98664.85;109566;1253;59049;-68
2023/10/24 00:36:05;;;;;;;50.60;44.00;;;;;;;7.01;100.00;98663.77;109339;1251;59159;-71
2023/10/24 00:38:33;;;;;;;55.10;43.80;;;;;;;7.01;100.00;98661.09;109550;1252;59258;-70
2023/10/24 00:41:00;;;;;;;51.70;43.70;;;;;;;7.00;100.00;98658.87;109541;1253;59898;-70
2023/10/24 00:43:26;;;;;;;52.90;45.60;;;;;;;6.98;100.00;98656.67;109466;1253;59255;-70
2023/10/24 00:45:53;;;;;;;55.40;45.70;;;;;;;6.98;100.00;98654.56;109521;1254;58997;-70
2023/10/24 00:48:19;;;;;;;56.30;45.70;;;;;;;6.99;100.00;98652.21;109470;1253;62853;-70
2023/10/24 00:50:46;;;;;;;57.10;47.70;;;;;;;6.99;100.00;98649.23;109500;1254;59005;-70
2023/10/24 00:53:13;;;;;;;51.60;44.40;;;;;;;6.97;100.00;98645.23;109545;1253;59085;-70
2023/10/24 00:55:40;;;;;;;50.10;41.00;;;;;;;6.96;100.00;98641.44;109486;1254;64765;-70
2023/10/24 00:58:09;;;;;;;53.60;44.40;;;;;;;6.95;100.00;98633.89;109556;1254;60189;-70
2023/10/24 01:00:36;;;;;;;53.90;45.80;;;;;;;6.94;100.00;98629.87;109497;1254;62976;-70
2023/10/24 01:03:04;;;;;;;51.20;42.30;;;;;;;6.94;100.00;98623.68;109491;1253;58947;-70
2023/10/24 01:05:31;;;;;;;48.50;42.20;;;;;;;6.94;100.00;98621.42;109514;1253;59780;-70
2023/10/24 01:07:57;;;;;;;49.00;40.80;;;;;;;6.94;100.00;98619.98;109550;1251;64773;-70
2023/10/24 01:10:24;;;;;;;51.00;38.40;;;;;;;6.94;100.00;98614.67;109522;1254;59161;-71
2023/10/24 01:12:50;;;;;;;49.70;41.60;;;;;;;6.94;100.00;98615.58;109524;1252;59122;-70
2023/10/24 01:15:17;;;;;;;50.30;41.40;;;;;;;6.94;100.00;98617.55;109354;1254;59112;-70
2023/10/24 01:17:51;;;;;;;46.90;40.90;;;;;;;6.93;100.00;98617.23;109534;1253;59069;-70
2023/10/24 01:20:17;;;;;;;46.10;38.30;;;;;;;6.93;100.00;98619.56;109469;1256;65807;-70
2023/10/24 01:22:47;;;;;;;47.20;41.00;;;;;;;6.93;100.00;98626.60;109562;1253;60150;-71
2023/10/24 01:25:14;;;;;;;45.20;39.10;;;;;;;6.93;100.00;98629.94;109481;1252;65289;-70
2023/10/24 01:27:42;;;;;;;42.70;36.60;;;;;;;6.94;100.00;98631.48;109382;1253;59025;-71
2023/10/24 01:30:11;;;;;;;41.80;36.70;;;;;;;6.96;100.00;98635.77;109127;1252;59119;-70
2023/10/24 01:32:37;;;;;;;41.70;36.50;;;;;;;6.98;100.00;98636.39;109353;1256;66041;-71
2023/10/24 01:35:06;;;;;;;45.70;37.30;;;;;;;6.99;100.00;98636.30;109538;1254;70011;-70
2023/10/24 01:37:32;;;;;;;47.10;40.10;;;;;;;7.01;100.00;98636.90;109513;1255;63750;-70
2023/10/24 01:39:58;;;;;;;41.30;36.50;;;;;;;7.04;100.00;98636.53;109507;1252;58899;-70
2023/10/24 01:42:25;;;;;;;40.90;35.00;;;;;;;7.08;100.00;98635.94;109531;1253;59101;-70
2023/10/24 01:44:51;;;;;;;42.00;36.30;;;;;;;7.13;100.00;98633.57;109498;1254;58983;-69
2023/10/24 01:47:18;;;;;;;44.70;37.30;;;;;;;7.17;100.00;98627.83;109511;1254;59032;-70
2023/10/24 01:49:45;;;;;;;39.30;34.90;;;;;;;7.23;100.00;98626.04;109531;1252;59006;-70
2023/10/24 01:52:11;;;;;;;45.70;37.70;;;;;;;7.30;100.00;98617.70;109464;1254;58950;-70
2023/10/24 01:54:38;;;;;;;48.20;37.80;;;;;;;7.35;100.00;98611.75;109460;1252;58966;-70
2023/10/24 01:57:04;;;;;;;42.90;36.50;;;;;;;7.39;100.00;98606.58;109529;1254;59898;-70
2023/10/24 01:59:31;;;;;;;43.60;36.70;;;;;;;7.42;100.00;98607.46;109424;1254;60132;-71
2023/10/24 02:01:57;;;;;;;39.70;33.20;;;;;;;7.44;100.00;98604.68;109469;1254;59097;-71
2023/10/24 02:04:24;;;;;;;42.90;33.40;;;;;;;7.46;100.00;98593.58;109517;1254;59031;-70
2023/10/24 02:06:50;;;;;;;39.00;32.00;;;;;;;7.48;100.00;98591.67;109505;1252;58920;-70
2023/10/24 02:09:17;;;;;;;38.40;33.50;;;;;;;7.51;100.00;98595.79;109518;1253;59075;-71
2023/10/24 02:11:43;;;;;;;39.90;31.90;;;;;;;7.52;100.00;98597.48;109369;1254;59129;-71
2023/10/24 02:14:10;;;;;;;39.80;33.00;;;;;;;7.53;100.00;98592.83;109571;1254;59040;-70
2023/10/24 02:16:36;;;;;;;40.30;31.60;;;;;;;7.54;100.00;98592.45;109464;1255;58919;-69
2023/10/24 02:19:02;;;;;;;40.90;33.40;;;;;;;7.54;100.00;98596.48;109535;1252;59292;-70
2023/10/24 02:21:29;;;;;;;41.70;32.20;;;;;;;7.54;100.00;98592.08;109355;1257;59296;-70
2023/10/24 02:23:56;;;;;;;41.10;32.20;;;;;;;7.54;100.00;98579.88;109484;1253;59293;-69
2023/10/24 02:26:23;;;;;;;37.60;32.20;;;;;;;7.53;100.00;98572.52;109473;1252;64058;-70
2023/10/24 02:28:49;;;;;;;42.50;30.00;;;;;;;7.52;100.00;98565.15;109524;1253;59266;-70
2023/10/24 02:31:16;;;;;;;32.90;28.60;;;;;;;7.51;100.00;98563.05;109536;1253;59181;-71
2023/10/24 02:33:42;;;;;;;36.10;29.40;;;;;;;7.52;100.00;98553.67;109488;1253;59289;-70
2023/10/24 02:36:14;;;;;;;37.90;28.80;;;;;;;7.51;100.00;98543.95;109546;1254;59057;-70
2023/10/24 02:38:40;;;;;;;36.20;28.10;;;;;;;7.51;100.00;98544.86;109464;1254;63950;-70
2023/10/24 02:41:07;;;;;;;35.70;28.60;;;;;;;7.51;100.00;98539.05;109470;1254;58944;-70
2023/10/24 02:43:33;;;;;;;36.60;28.20;;;;;;;7.51;100.00;98539.77;109519;1253;58842;-70
2023/10/24 02:46:05;;;;;;;37.80;28.70;;;;;;;7.51;100.00;98539.75;109355;1254;66041;-70
2023/10/24 02:48:32;;;;;;;38.20;30.30;;;;;;;7.52;100.00;98541.28;109510;1253;61350;-70
2023/10/24 02:50:59;;;;;;;40.30;29.10;;;;;;;7.53;100.00;98545.30;109542;1252;62809;-70
2023/10/24 02:53:26;;;;;;;37.80;28.90;;;;;;;7.52;100.00;98549.94;109466;1253;59037;-70
2023/10/24 02:55:53;;;;;;;42.00;35.10;;;;;;;7.51;100.00;98544.71;109527;1253;59180;-70
2023/10/24 02:58:19;;;;;;;50.80;45.40;;;;;;;7.51;100.00;98535.35;109537;1252;66066;-70
2023/10/24 03:00:46;;;;;;;40.90;31.60;;;;;;;7.50;100.00;98531.16;109525;1252;58960;-70
2023/10/24 03:03:13;;;;;;;37.80;31.40;;;;;;;7.50;100.00;98532.39;109498;1254;59109;-70
2023/10/24 03:05:39;;;;;;;46.40;41.40;;;;;;;7.50;100.00;98541.38;109487;1253;58968;-70
2023/10/24 03:08:06;;;;;;;43.10;36.40;;;;;;;7.51;100.00;98544.71;109516;1253;59045;-70
2023/10/24 03:10:39;;;;;;;31.60;28.10;;;;;;;7.51;100.00;98542.39;109562;1251;58930;-70
2023/10/24 03:13:06;;;;;;;32.70;26.90;;;;;;;7.52;100.00;98540.76;109541;1254;60196;-70
2023/10/24 03:15:34;;;;;;;41.00;29.20;;;;;;;7.52;100.00;98534.37;109460;1254;62881;-70
2023/10/24 03:18:00;;;;;;;35.10;28.30;;;;;;;7.53;100.00;98543.36;109523;1253;58935;-70
2023/10/24 03:20:27;;;;;;;35.40;28.20;;;;;;;7.53;100.00;98547.40;109543;1253;59115;-70
2023/10/24 03:22:54;;;;;;;34.10;28.20;;;;;;;7.53;100.00;98545.63;109518;1253;67171;-70
2023/10/24 03:25:23;;;;;;;35.90;28.00;;;;;;;7.54;100.00;98543.30;109353;1252;59977;-70
2023/10/24 03:27:52;;;;;;;33.60;27.10;;;;;;;7.54;100.00;98544.17;109455;1253;65622;-70
2023/10/24 03:30:18;;;;;;;34.60;26.80;;;;;;;7.54;100.00;98543.83;109456;1252;59002;-71
2023/10/24 03:32:45;;;;;;;33.10;26.70;;;;;;;7.53;100.00;98543.35;109515;1253;58986;-70
2023/10/24 03:35:11;;;;;;;33.40;26.60;;;;;;;7.51;100.00;98540.27;109502;1254;59027;-71
2023/10/24 03:37:38;;;;;;;36.90;28.20;;;;;;;7.50;100.00;98541.77;109498;1251;60202;-71
2023/10/24 03:40:05;;;;;;;38.30;28.70;;;;;;;7.47;100.00;98534.66;109494;1253;59082;-71
2023/10/24 03:42:31;;;;;;;38.60;30.90;;;;;;;7.45;100.00;98529.31;109330;1254;59549;-70
2023/10/24 03:44:58;;;;;;;33.40;27.90;;;;;;;7.44;100.00;98527.27;109545;1251;59871;-71
2023/10/24 03:47:25;;;;;;;35.30;26.70;;;;;;;7.42;100.00;98523.48;109512;1254;64822;-71
2023/10/24 03:49:51;;;;;;;37.90;29.20;;;;;;;7.41;100.00;98517.20;109486;1252;59172;-71
2023/10/24 03:52:18;;;;;;;33.00;28.00;;;;;;;7.41;100.00;98513.50;109524;1253;59072;-70
2023/10/24 03:54:44;;;;;;;33.40;27.80;;;;;;;7.40;100.00;98510.55;109480;1253;59059;-70
2023/10/24 03:57:11;;;;;;;38.10;29.20;;;;;;;7.40;100.00;98508.42;109381;1253;59293;-71
2023/10/24 03:59:37;;;;;;;37.30;29.30;;;;;;;7.40;100.00;98511.60;109539;1254;59101;-70
2023/10/24 04:02:04;;;;;;;33.30;28.30;;;;;;;7.40;100.00;98518.83;109549;1253;58979;-70
2023/10/24 04:04:30;;;;;;;33.80;28.70;;;;;;;7.40;100.00;98522.04;109485;1253;59121;-70
2023/10/24 04:06:57;;;;;;;38.40;28.20;;;;;;;7.39;100.00;98526.69;109479;1253;59066;-70
2023/10/24 04:09:23;;;;;;;34.80;29.40;;;;;;;7.38;100.00;98530.42;109514;1252;58965;-70
2023/10/24 04:11:50;;;;;;;39.60;28.80;;;;;;;7.39;100.00;98529.71;109590;1251;59391;-70
2023/10/24 04:14:16;;;;;;;39.40;29.40;;;;;;;7.39;100.00;98530.39;109586;1251;59288;-70
2023/10/24 04:16:42;;;;;;;38.20;28.50;;;;;;;7.39;100.00;98526.16;109644;1251;59002;-70
2023/10/24 04:19:10;;;;;;;38.40;29.10;;;;;;;7.38;100.00;98517.20;109579;1251;59267;-69
2023/10/24 04:21:36;;;;;;;35.60;29.60;;;;;;;7.38;100.00;98515.08;109579;1251;59406;-69
2023/10/24 04:24:03;;;;;;;35.30;28.60;;;;;;;7.37;100.00;98517.60;109618;1250;58911;-69
2023/10/24 04:26:30;;;;;;;33.60;27.50;;;;;;;7.35;100.00;98519.11;109629;1250;61419;-70
2023/10/24 04:28:56;;;;;;;37.20;29.00;;;;;;;7.34;100.00;98515.84;109592;1250;59471;-70
2023/10/24 04:31:23;;;;;;;38.40;28.60;;;;;;;7.34;100.00;98515.14;109652;1250;59041;-70
2023/10/24 04:33:50;;;;;;;34.00;29.20;;;;;;;7.34;100.00;98512.88;109557;1251;59035;-70
2023/10/24 04:36:17;;;;;;;33.60;28.30;;;;;;;7.32;100.00;98516.86;109618;1251;67199;-70
2023/10/24 04:38:43;;;;;;;33.90;27.30;;;;;;;7.31;100.00;98512.89;109631;1250;59430;-70
2023/10/24 04:41:10;;;;;;;35.80;29.00;;;;;;;7.30;100.00;98507.67;109602;1250;59003;-70
2023/10/24 04:43:36;;;;;;;37.10;27.90;;;;;;;7.28;100.00;98502.09;109628;1251;59441;-69
2023/10/24 04:46:03;;;;;;;36.00;28.50;;;;;;;7.28;100.00;98492.75;109612;1250;59329;-70
2023/10/24 04:48:29;;;;;;;37.60;28.60;;;;;;;7.28;100.00;98488.33;109625;1250;59011;-70
2023/10/24 04:50:55;;;;;;;34.90;28.20;;;;;;;7.28;100.00;98482.13;109613;1250;58982;-69
2023/10/24 04:53:22;;;;;;;32.00;28.10;;;;;;;7.29;100.00;98475.91;109567;1250;59941;-69
2023/10/24 04:55:49;;;;;;;33.40;28.00;;;;;;;7.28;100.00;98467.96;109639;1250;58989;-70
2023/10/24 04:58:15;;;;;;;36.50;28.40;;;;;;;7.29;100.00;98464.02;109610;1250;58985;-69
2023/10/24 05:00:42;;;;;;;37.10;28.70;;;;;;;7.29;100.00;98461.90;109355;1251;59406;-69
2023/10/24 05:03:08;;;;;;;36.50;27.40;;;;;;;7.30;100.00;98456.77;109624;1250;59246;-69
2023/10/24 05:05:35;;;;;;;34.30;27.50;;;;;;;7.30;100.00;98449.70;109634;1250;63744;-70
2023/10/24 05:08:06;;;;;;;31.80;24.90;;;;;;;7.31;100.00;98454.53;109608;1250;58978;-70
2023/10/24 05:10:33;;;;;;;29.80;24.70;;;;;;;7.32;100.00;98466.86;109370;1251;59091;-70
2023/10/24 05:13:00;;;;;;;30.00;25.40;;;;;;;7.32;100.00;98470.24;109616;1250;59062;-70
2023/10/24 05:15:27;;;;;;;29.60;25.50;;;;;;;7.31;100.00;98482.14;109523;1251;60161;-69
2023/10/24 05:17:53;;;;;;;28.90;25.20;;;;;;;7.31;100.00;98504.58;109493;1251;64152;-69
2023/10/24 05:20:20;;;;;;;30.80;25.80;;;;;;;7.30;100.00;98518.06;109588;1250;58954;-70
2023/10/24 05:22:47;;;;;;;36.00;28.40;;;;;;;7.29;100.00;98528.34;109578;1251;59166;-70
2023/10/24 05:25:14;;;;;;;35.60;29.50;;;;;;;7.29;100.00;98526.94;109561;1251;59066;-70
2023/10/24 05:27:40;;;;;;;30.90;25.30;;;;;;;7.30;100.00;98523.17;109563;1251;60703;-70
2023/10/24 05:30:07;;;;;;;33.00;25.50;;;;;;;7.31;100.00;98533.69;109605;1250;59334;-69
2023/10/24 05:32:34;;;;;;;27.30;24.20;;;;;;;7.33;100.00;98543.14;109587;1250;59199;-69
2023/10/24 05:35:00;;;;;;;34.20;25.00;;;;;;;7.34;100.00;98542.02;109528;1251;59041;-70
2023/10/24 05:37:27;;;;;;;34.60;27.10;;;;;;;7.35;100.00;98532.92;109610;1250;59079;-70
2023/10/24 05:39:53;;;;;;;34.40;26.20;;;;;;;7.38;100.00;98526.08;109608;1250;59405;-70
2023/10/24 05:42:20;;;;;;;30.50;26.10;;;;;;;7.40;100.00;98519.23;109585;1251;59030;-70
2023/10/24 05:44:46;;;;;;;32.30;25.60;;;;;;;7.42;100.00;98508.45;109582;1251;59011;-70
2023/10/24 05:47:14;;;;;;;32.00;26.60;;;;;;;7.44;100.00;98501.10;109611;1250;59056;-70
2023/10/24 05:49:40;;;;;;;31.90;26.60;;;;;;;7.45;100.00;98494.65;109600;1250;66871;-70
2023/10/24 05:52:07;;;;;;;33.20;28.00;;;;;;;7.47;100.00;98485.00;109604;1250;60221;-70
2023/10/24 05:54:36;;;;;;;36.60;27.90;;;;;;;7.50;100.00;98475.80;109595;1250;64025;-71
2023/10/24 05:57:03;;;;;;;35.10;27.70;;;;;;;7.54;100.00;98471.66;109580;1250;58896;-69
2023/10/24 05:59:29;;;;;;;34.80;31.00;;;;;;;7.61;100.00;98468.77;109638;1250;58928;-70
2023/10/24 06:01:56;;;;;;;33.80;26.20;;;;;;;7.67;100.00;98462.86;109565;1250;58928;-69
2023/10/24 06:04:22;;;;;;;31.90;25.70;;;;;;;7.73;100.00;98457.20;109510;1251;59319;-70
2023/10/24 06:06:49;;;;;;;36.30;31.20;;;;;;;7.79;100.00;98456.67;109596;1250;59058;-69
2023/10/24 06:09:15;;;;;;;40.80;36.70;;;;;;;7.84;100.00;98456.32;109597;1250;58979;-68
2023/10/24 06:11:42;;;;;;;36.90;33.00;;;;;;;7.89;100.00;98460.20;109511;1251;59090;-70
2023/10/24 06:14:08;;;;;;;42.80;36.00;;;;;;;7.96;100.00;98474.51;109607;1250;58960;-70
2023/10/24 06:16:35;;;;;;;41.00;32.70;;;;;;;8.01;100.00;98484.23;109621;1250;59059;-70
2023/10/24 06:19:04;;;;;;;35.80;31.90;;;;;;;8.08;100.00;98488.73;109519;1251;59821;-71
2023/10/24 06:21:30;;;;;;;45.20;40.50;;;;;;;8.15;100.00;98496.96;109462;1251;59255;-69
2023/10/24 06:23:57;;;;;;;35.40;28.30;;;;;;;8.23;100.00;98502.25;109368;1250;59191;-70
2023/10/24 06:26:23;;;;;;;31.10;26.00;;;;;;;8.33;100.00;98503.88;109535;1250;74833;-70
2023/10/24 06:28:50;;;;;;;27.80;23.40;;;;;;;8.46;100.00;98503.25;109466;1253;59831;-69
2023/10/24 06:31:17;;;;;;;29.20;23.20;;;;;;;8.61;100.00;98503.88;109434;1253;64163;-70
2023/10/24 06:33:43;;;;;;;24.60;20.90;;;;;;;8.72;100.00;98500.67;109461;1253;59319;-69
2023/10/24 06:36:10;;;;;;;31.60;28.30;;;;;;;8.75;100.00;98494.95;109569;1252;59020;-70
2023/10/24 06:38:36;;;;;;;24.00;21.30;;;;;;;8.79;100.00;98492.18;109458;1253;65704;-70
2023/10/24 06:41:06;;;;;;;25.20;21.50;;;;;;;8.82;100.00;98493.23;109503;1252;58998;-70
2023/10/24 06:43:33;;;;;;;;;;;;;;;8.86;100.00;98497.05;109299;1254;62646;-71
2023/10/24 06:46:02;;;;;;;24.20;20.60;;;;;;;8.92;100.00;98494.88;109246;1254;59493;-70
2023/10/24 06:48:31;;;;;;;26.10;20.50;;;;;;;8.95;100.00;98488.48;109167;1254;59339;-70
2023/10/24 06:50:58;;;;;;;23.70;21.00;;;;;;;8.94;100.00;98481.63;109297;1254;64824;-69
2023/10/24 06:53:25;;;;;;;25.90;22.70;;;;;;;8.95;100.00;98479.94;109311;1254;60286;-70
2023/10/24 06:55:58;;;;;;;24.10;20.80;;;;;;;9.00;100.00;98484.36;109075;1254;62540;-69
2023/10/24 06:58:24;;;;;;;25.80;22.30;;;;;;;9.08;100.00;98493.77;109048;1254;59433;-70
2023/10/24 07:00:51;;;;;;;23.00;20.40;;;;;;;9.15;100.00;98497.73;109278;1254;59192;-70
2023/10/24 07:03:17;;;;;;;26.60;22.00;;;;;;;9.22;100.00;98495.64;109265;1254;59085;-70
2023/10/24 07:05:51;;;;;;;21.60;19.40;;;;;;;9.28;100.00;98495.75;109258;1254;59051;-69
2023/10/24 07:08:18;;;;;;;26.10;23.50;;;;;;;9.35;100.00;98482.34;109235;1254;73811;-70
2023/10/24 07:10:45;;;;;;;25.20;21.30;;;;;;;9.44;100.00;98469.65;109285;1254;59035;-71
2023/10/24 07:13:12;;;;;;;22.80;19.50;;;;;;;9.53;100.00;98467.44;109076;1254;59006;-67
2023/10/24 07:15:39;;;;;;;21.60;18.60;;;;;;;9.59;100.00;98462.89;109466;1253;66155;-66
2023/10/24 07:18:06;;;;;;;21.30;18.50;;;;;;;9.66;100.00;98459.16;109476;1251;60137;-67
2023/10/24 07:20:37;;;;;;;20.40;18.30;;;;;;;9.75;100.00;98453.39;109505;1253;65041;-66
2023/10/24 07:23:03;;;;;;;;;;;;;;;9.84;100.00;98452.60;109498;1252;58959;-68
2023/10/24 07:25:31;;;;;;;21.40;17.70;;;;;;;9.93;100.00;98449.13;109552;1250;59098;-67
2023/10/24 07:27:58;;;;;;;21.40;18.70;;;;;;;10.02;100.00;98439.35;109618;1250;66164;-67
2023/10/24 07:30:25;;;;;;;23.50;18.50;;;;;;;10.15;100.00;98436.50;109349;1250;59224;-67
2023/10/24 07:32:54;;;;;;;20.20;17.90;;;;;;;10.28;100.00;98433.58;109606;1250;62817;-67
2023/10/24 07:35:23;;;;;;;19.90;17.20;;;;;;;10.38;100.00;98432.98;109640;1250;59064;-67
2023/10/24 07:37:50;;;;;;;22.00;17.60;;;;;;;10.46;100.00;98438.41;109623;1250;59005;-67
2023/10/24 07:40:17;;;;;;;22.20;17.80;;;;;;;10.53;100.00;98440.57;109591;1250;66010;-68
2023/10/24 07:42:43;;;;;;;18.30;16.30;;;;;;;10.58;100.00;98434.92;109603;1250;67616;-67
2023/10/24 07:45:11;;;;;;;19.30;17.00;;;;;;;10.62;100.00;98431.04;109505;1251;64178;-67
2023/10/24 07:47:38;;;;;;;19.50;17.50;;;;;;;10.70;100.00;98428.15;109608;1250;59018;-67
2023/10/24 07:50:06;;;;;;;19.50;17.30;;;;;;;10.79;100.00;98420.88;109636;1250;59034;-67
2023/10/24 07:52:33;;;;;;;22.40;18.00;;;;;;;10.90;100.00;98409.46;109620;1250;64473;-68
2023/10/24 07:54:59;;;;;;;20.20;17.20;;;;;;;11.01;100.00;98393.54;109545;1250;59085;-67
2023/10/24 07:57:26;;;;;;;17.50;15.50;;;;;;;11.12;100.00;98385.72;109373;1251;62795;-67
2023/10/24 07:59:53;;;;;;;19.40;14.90;;;;;;;11.24;100.00;98376.42;109614;1250;59028;-67
2023/10/24 08:02:19;;;;;;;20.50;15.90;;;;;;;11.37;100.00;98366.35;109609;1250;59037;-67
2023/10/24 08:04:46;;;;;;;19.40;17.00;;;;;;;11.47;100.00;98355.38;109611;1250;59166;-67
2023/10/24 08:07:12;;;;;;;19.10;17.00;;;;;;;11.55;100.00;98345.13;109609;1250;61352;-67
2023/10/24 08:09:38;;;;;;;21.60;15.60;;;;;;;11.63;100.00;98338.82;109569;1250;59098;-67
2023/10/24 08:12:05;;;;;;;20.80;15.90;;;;;;;11.74;100.00;98331.00;109324;1251;59101;-67
2023/10/24 08:14:32;;;;;;;15.90;13.80;;;;;;;11.81;100.00;98330.34;109433;1251;59116;-67
2023/10/24 08:16:58;;;;;;;16.60;13.10;;;;;;;11.86;100.00;98335.13;109613;1250;59595;-67
2023/10/24 08:19:25;;;;;;;16.00;14.50;;;;;;;11.89;100.00;98346.46;109586;1251;59059;-67
2023/10/24 08:21:51;;;;;;;15.70;13.40;;;;;;;11.92;100.00;98349.45;109609;1250;64771;-67
2023/10/24 08:24:18;;;;;;;13.90;12.30;;;;;;;11.95;100.00;98352.89;109352;1251;58970;-67
2023/10/24 08:26:44;;;;;;;15.00;13.40;;;;;;;12.00;100.00;98357.86;109567;1251;59066;-67
2023/10/24 08:29:10;;;;;;;16.50;14.10;;;;;;;12.07;100.00;98363.09;109602;1250;58927;-67
2023/10/24 08:31:37;;;;;;;15.30;12.60;;;;;;;12.20;100.00;98363.16;109404;1253;59189;-67
2023/10/24 08:34:03;;;;;;;16.70;12.40;;;;;;;12.39;100.00;98374.73;109569;1250;59058;-67
2023/10/24 08:36:30;;;;;;;13.80;12.10;;;;;;;12.53;100.00;98394.35;109567;1250;58999;-67
2023/10/24 08:38:56;;;;;;;15.50;11.30;;;;;;;12.63;100.00;98408.86;109629;1250;58997;-67
2023/10/24 08:41:23;;;;;;;15.20;12.50;;;;;;;12.78;100.00;98413.13;109614;1250;59317;-67
2023/10/24 08:43:50;;;;;;;12.50;11.20;;;;;;;12.90;100.00;98406.55;109572;1250;59098;-67
2023/10/24 08:46:16;;;;;;;14.70;11.60;;;;;;;12.93;100.00;98400.77;109613;1250;64401;-67
2023/10/24 08:48:43;;;;;;;13.40;11.80;;;;;;;12.92;100.00;98396.04;109579;1250;58947;-67
2023/10/24 08:51:10;;;;;;;13.30;10.90;;;;;;;12.99;100.00;98401.48;109528;1251;58955;-68
2023/10/24 08:53:36;;;;;;;13.30;10.90;;;;;;;13.12;100.00;98406.08;109521;1251;66951;-67
2023/10/24 08:56:08;;;;;;;12.80;10.50;;;;;;;13.26;100.00;98404.85;109576;1250;58987;-67
2023/10/24 08:58:38;;;;;;;12.30;11.00;;;;;;;13.39;100.00;98394.96;109577;1250;64036;-67
2023/10/24 09:01:07;;;;;;;14.90;10.90;;;;;;;13.52;100.00;98383.71;109599;1250;59013;-67
2023/10/24 09:03:36;;;;;;;13.20;10.50;;;;;;;13.58;100.00;98365.47;109611;1250;59041;-67
2023/10/24 09:06:03;;;;;;;13.10;10.20;;;;;;;13.64;100.00;98349.64;109604;1250;65127;-67
2023/10/24 09:08:30;;;;;;;13.80;11.10;;;;;;;13.68;100.00;98331.38;109431;1250;158395;-68
2023/10/24 09:10:56;;;;;;;13.00;11.40;;;;;;;13.71;100.00;98316.28;109550;1251;59048;-67
2023/10/24 09:13:26;;;;;;;13.30;11.00;;;;;;;13.74;100.00;98322.48;109550;1250;59090;-67
2023/10/24 09:16:09;;;;;;;15.70;11.10;;;;;;;13.79;100.00;98331.31;109640;1250;58972;-68
2023/10/24 09:18:37;;;;;;;18.10;13.90;;;;;;;13.93;100.00;98336.98;109558;1250;65993;-68
2023/10/24 09:21:08;;;;;;;21.50;15.90;;;;;;;14.05;100.00;98335.85;109517;1250;59053;-67
2023/10/24 09:23:36;;;;;;;22.50;19.80;;;;;;;14.16;100.00;98337.36;109564;1251;64002;-67
2023/10/24 09:26:07;;;;;;;18.00;16.30;;;;;;;14.28;100.00;98337.30;109530;1250;58947;-67
2023/10/24 09:28:34;;;;;;;17.30;15.50;;;;;;;14.39;100.00;98337.92;109610;1250;59017;-68
2023/10/24 09:31:01;;;;;;;14.30;12.80;;;;;;;14.49;100.00;98335.23;109582;1250;66100;-67
2023/10/24 09:33:28;;;;;;;20.00;14.00;;;;;;;14.60;100.00;98329.42;109552;1250;60012;-67
2023/10/24 09:35:57;;;;;;;14.80;13.20;;;;;;;14.67;100.00;98320.51;109561;1250;64151;-68
2023/10/24 09:38:24;;;;;;;14.30;12.00;;;;;;;14.71;100.00;98314.00;109559;1250;58953;-68
2023/10/24 09:40:52;;;;;;;13.40;11.40;;;;;;;14.70;100.00;98307.02;109579;1250;58960;-67
2023/10/24 09:43:23;;;;;;;17.50;12.60;;;;;;;14.59;100.00;98301.92;109561;1250;64744;-67
2023/10/24 09:45:51;;;;;;;14.70;11.10;;;;;;;14.54;100.00;98299.43;109574;1250;59840;-68
2023/10/24 09:48:19;;;;;;;14.20;12.30;;;;;;;14.61;100.00;98297.81;109565;1250;64104;-67
2023/10/24 09:50:49;;;;;;;13.00;11.50;;;;;;;14.76;100.00;98297.50;109553;1250;59034;-68
2023/10/24 09:53:18;;;;;;;14.70;10.80;;;;;;;14.88;100.00;98301.14;109626;1250;58873;-67
2023/10/24 09:55:48;;;;;;;14.90;11.40;;;;;;;15.00;100.00;98301.81;109568;1250;64699;-68
2023/10/24 09:58:22;;;;;;;12.60;10.20;;;;;;;15.09;100.00;98296.27;109554;1251;59903;-68
2023/10/24 10:00:49;;;;;;;14.80;11.60;;;;;;;15.13;100.00;98289.05;109565;1251;65265;-67
2023/10/24 10:03:16;;;;;;;14.00;11.00;;;;;;;15.13;100.00;98288.53;109548;1250;58996;-68
2023/10/24 10:05:44;;;;;;;13.20;10.50;;;;;;;15.12;100.00;98284.88;109575;1250;59054;-68
2023/10/24 10:08:14;;;;;;;12.60;11.00;;;;;;;15.11;100.00;98276.52;109538;1250;65778;-67
2023/10/24 10:10:42;;;;;;;;;;;;;;;15.14;100.00;98270.40;109522;1250;58978;-68
2023/10/24 10:13:15;;;;;;;12.50;10.30;;;;;;;15.19;100.00;98268.84;109516;1250;65243;-66
2023/10/24 10:15:55;;;;;;;13.00;10.50;;;;;;;15.22;100.00;98254.39;109574;1250;59008;-67
2023/10/24 10:18:51;;;;;;;11.30;10.00;;;;;;;15.24;100.00;98244.54;109549;1249;58957;-66
2023/10/24 10:21:36;;;;;;;11.90;10.10;;;;;;;15.29;100.00;98242.05;109593;1251;65771;-67
2023/10/24 10:24:29;;;;;;;14.00;11.00;;;;;;;15.38;100.00;98240.43;109591;1250;60216;-67
2023/10/24 10:27:10;;;;;;;13.40;9.80;;;;;;;15.46;100.00;98234.98;109558;1250;62588;-67
2023/10/24 10:29:59;;;;;;;14.20;9.80;;;;;;;15.56;100.00;98227.77;109434;1251;59184;-67
2023/10/24 10:32:47;;;;;;;12.70;9.80;;;;;;;15.74;100.00;98224.53;109592;1250;58956;-67
2023/10/24 10:35:14;;;;;;;14.70;11.10;;;;;;;15.92;100.00;98218.64;109571;1251;67327;-67
2023/10/24 10:37:40;;;;;;;14.50;10.60;;;;;;;16.09;100.00;98214.70;109566;1250;59102;-67
2023/10/24 10:40:16;;;;;;;16.60;11.50;;;;;;;16.25;100.00;98218.52;109571;1250;59164;-67
2023/10/24 10:42:50;;;;;;;14.00;11.90;;;;;;;16.41;100.00;98217.58;109573;1251;59029;-67
2023/10/24 10:45:30;;;;;;;12.70;10.50;;;;;;;16.58;100.00;98216.48;109594;1250;58882;-67
2023/10/24 10:48:02;;;;;;;11.90;10.00;;;;;;;16.70;100.00;98211.45;109554;1251;66184;-67
2023/10/24 10:50:31;;;;;;;13.10;10.30;;;;;;;16.75;100.00;98200.20;109564;1250;61329;-67
2023/10/24 10:53:03;;;;;;;14.30;11.70;;;;;;;16.80;100.00;98191.23;109577;1250;64129;-67
2023/10/24 10:55:51;;;;;;;13.70;11.30;;;;;;;16.93;100.00;98187.39;109569;1251;59030;-67
2023/10/24 10:58:47;;;;;;;12.80;11.40;;;;;;;17.04;100.00;98179.25;109588;1250;58877;-66
2023/10/24 11:01:37;;;;;;;14.90;11.30;;;;;;;17.07;100.00;98171.65;109024;1257;66082;-66
2023/10/24 11:04:13;;;;;;;14.40;11.70;;;;;;;17.12;100.00;98165.81;109045;1257;59579;-66
2023/10/24 11:06:56;;;;;;;12.60;11.20;;;;;;;17.14;100.00;98156.47;109025;1257;63031;-67
2023/10/24 11:09:30;;;;;;;12.80;11.00;;;;;;;17.16;100.00;98149.09;109021;1257;58829;-67
2023/10/24 11:12:18;;;;;;;14.30;11.60;;;;;;;17.14;100.00;98146.54;108901;1257;59165;-67